Meteo Giornale » Osservazioni meteo Italia » Catania-Fontanarossa

ore: 16:20 - Osservazioni Meteo Catania-Fontanarossa
Lat. 37° 28' N Lon. 15° 3' E Alt. 11 metri s.l.m.

sereno Europe/Rome

18 °C

Sereno

Temp. 24 Ore

7 °C

18 °C

Est

14.8 Km/h

Dew point 12 °C

Umidità 67 %

Visibilità  10 Km

Il sole sorge alle ore 06:17

Il sole tramonta alle ore 19:39

Data e Ora Cielo e Fenomeni T °C DP °C Um. % Pres. hPa Vis. km Vento km/h
Oggi h: 16:20 sereno Sereno 18 12 67 1025 10 E 14.8
Oggi h: 15:50 sereno Sereno 18 13 72 1025 10 E 14.8
Oggi h: 15:20 sereno Sereno 18 13 72 1025 10 E 14.8
Oggi h: 14:50 sereno Sereno 18 13 72 1026 10 E/SE 18.5
Oggi h: 14:20 sereno Sereno 18 12 67 1026 10 E 16.7
Oggi h: 13:50 poco_nuvoloso Poco Nuvoloso 18 12 67 1026 10 E 20.3
Oggi h: 13:20 poco_nuvoloso Poco Nuvoloso 18 13 72 1026 10 E 20.3
Oggi h: 12:50 poco_nuvoloso Poco Nuvoloso 18 12 67 1026 10 E 20.3
Oggi h: 12:20 poco_nuvoloso Poco Nuvoloso 18 12 67 1026 10 E 20.3
Oggi h: 11:50 poco_nuvoloso Poco Nuvoloso 18 12 67 1026 10 E 20.3
Oggi h: 11:20 poco_nuvoloso Poco Nuvoloso 18 12 67 1026 10 E 22.2
Oggi h: 10:50 poco_nuvoloso Poco Nuvoloso 18 11 63 1026 10 E 24
Oggi h: 10:20 poco_nuvoloso Poco Nuvoloso 18 11 63 1026 10 E/NE 22.2
Oggi h: 09:50 poco_nuvoloso Poco Nuvoloso 17 12 72 1026 10 E 20.3
Oggi h: 08:50 poco_nuvoloso Poco Nuvoloso 14 13 93 1025 10 N 5.5
Oggi h: 08:20 poco_nuvoloso Poco Nuvoloso 12 11 93 1025 9 O/SO 9.3
Oggi h: 07:50 sereno Sereno 11 10 93 1025 7 O/SO 7.4
Oggi h: 07:20 sereno Sereno 9 9 100 1025 7 O/SO 7.4
Oggi h: 06:50 foschia Foschia 7 7 100 1024 5 N 5.5
Oggi h: 06:20 foschia Foschia 8 7 93 1024 4 N 5.5
Oggi h: 05:50 foschia Foschia 7 7 100 1024 4 O/SO 7.4
Oggi h: 05:20 foschia Foschia 7 7 100 1024 4 O/SO 9.3
Oggi h: 04:50 sereno Sereno 8 8 100 1024 10 N 5.5
Oggi h: 04:20 sereno Sereno 8 8 100 1024 10 O/SO 7.4
Oggi h: 03:50 sereno Sereno 8 8 100 1024 10 O/SO 9.3
Oggi h: 03:20 sereno Sereno 10 10 100 1024 10 SO 7.4
Oggi h: 02:50 sereno Sereno 12 12 100 1024 10 N 1.8
Oggi h: 02:20 sereno Sereno 12 12 100 1024 10 N 3.7
Oggi h: 01:50 sereno Sereno 13 13 100 1024 10 N 5.5
Oggi h: 01:20 sereno Sereno 13 12 93 1024 10 N 3.7
Oggi h: 00:50 sereno Sereno 13 13 100 1024 10 N 1.8
Oggi h: 00:20 sereno Sereno 14 13 93 1024 10 E/NE 7.4
Ieri h: 23:50 sereno Sereno 14 14 100 1024 10 NE 9.3
Ieri h: 23:20 sereno Sereno 14 14 100 1024 10 E/NE 7.4
Ieri h: 22:50 sereno Sereno 15 14 93 1023 10 E/NE 9.3
Ieri h: 22:20 sereno Sereno 15 14 93 1023 10 E/NE 11.1
Ieri h: 21:50 sereno Sereno 15 14 93 1023 10 E/NE 11.1
Ieri h: 21:20 sereno Sereno 15 14 93 1023 10 E/NE 11.1
Ieri h: 20:50 sereno Sereno 15 14 93 1022 10 E/NE 13
Ieri h: 20:20 sereno Sereno 15 14 93 1022 10 E/NE 13
Ieri h: 19:50 sereno Sereno 15 14 93 1021 10 E/NE 13
Ieri h: 19:20 sereno Sereno 16 14 87 1021 10 E/NE 14.8
Ieri h: 18:50 poco_nuvoloso Poco Nuvoloso 16 14 87 1021 10 E 14.8
Ieri h: 18:20 poco_nuvoloso Poco Nuvoloso 17 14 82 1021 10 E 18.5
Ieri h: 17:50 poco_nuvoloso Poco Nuvoloso 17 14 82 1021 10 E 18.5
Ieri h: 17:20 poco_nuvoloso Poco Nuvoloso 17 14 82 1021 10 E 18.5
Ieri h: 16:50 poco_nuvoloso Poco Nuvoloso 18 14 77 1021 10 E 18.5